Strona główna
METAR-TAF:

METAR-TAF

Lotnisko :

Springfield-Beckley Municipal Airport

Springfield, Ohio, Stany Zjednoczone

Szerokość geograficzna: 39-50N, Długość geograficzna: 083-50W, wysokość: 321 m

Aktualna obserwacja pogody

Raport powstał 39 minut temu, godzina 01:56 UTC
Wiatr 4 kt od zachodnio-północny zachód
Temperatura 24°C
Wilgotność 94%
Ciśnienie 1015 hPa
Widzialność: 16.1 km
bezchmurnie

METAR: KSGH 180156Z AUTO 30004KT 10SM CLR 24/23 A2996 RMK AO2 SLP140 T02440233

czas: 22:35 (02:35 UTC)


TAF: brakujący

Obserwacja i prognoza pogody dla ponad 4000 lotnisk (raport METAR i TAF).

Dostępne stacje oznaczono żółtymi i czerwonymi punktami na mapie.

Najedź kursorem aby zobaczyć nazwę stacji.

Kliknij aby zobaczyć obserwacje i prognozy pogody.

Aby zmienić mapę: kliknij na zielony przycisk z czarnym krzyżykiem, aby powiększyć; na zielony przycisk z myślnikiem, aby pomniejszyć; na zielone strzałki, aby przejść do map sąsiednich.


METAR-TAF: